sensor_id;sensor_type;location;lat;lon;timestamp;temperature;humidity
23411;DHT22;11878;51.774;7.220;2023-12-28T00:01:06;7.90;99.90
23411;DHT22;11878;51.774;7.220;2023-12-28T00:04:08;7.90;99.90
23411;DHT22;11878;51.774;7.220;2023-12-28T00:07:10;7.90;99.90
23411;DHT22;11878;51.774;7.220;2023-12-28T00:10:13;7.90;99.90
23411;DHT22;11878;51.774;7.220;2023-12-28T00:13:15;7.90;99.90
23411;DHT22;11878;51.774;7.220;2023-12-28T00:16:17;7.90;99.90
23411;DHT22;11878;51.774;7.220;2023-12-28T00:19:18;7.90;99.90
23411;DHT22;11878;51.774;7.220;2023-12-28T00:22:22;8.00;99.90
23411;DHT22;11878;51.774;7.220;2023-12-28T00:25:24;8.00;99.90
23411;DHT22;11878;51.774;7.220;2023-12-28T00:28:26;8.00;99.90
23411;DHT22;11878;51.774;7.220;2023-12-28T00:31:28;8.00;99.90
23411;DHT22;11878;51.774;7.220;2023-12-28T00:34:30;8.10;99.90
23411;DHT22;11878;51.774;7.220;2023-12-28T00:37:32;8.20;99.90
23411;DHT22;11878;51.774;7.220;2023-12-28T00:40:33;8.30;99.90
23411;DHT22;11878;51.774;7.220;2023-12-28T00:43:35;8.30;99.90
23411;DHT22;11878;51.774;7.220;2023-12-28T00:46:37;8.30;99.90
23411;DHT22;11878;51.774;7.220;2023-12-28T00:49:39;8.40;99.90
23411;DHT22;11878;51.774;7.220;2023-12-28T00:52:42;8.40;99.90
23411;DHT22;11878;51.774;7.220;2023-12-28T00:55:44;8.40;99.90
23411;DHT22;11878;51.774;7.220;2023-12-28T00:58:46;8.40;99.90
23411;DHT22;11878;51.774;7.220;2023-12-28T01:01:48;8.50;99.90
23411;DHT22;11878;51.774;7.220;2023-12-28T01:04:50;8.50;99.90
23411;DHT22;11878;51.774;7.220;2023-12-28T01:07:53;8.50;99.90
23411;DHT22;11878;51.774;7.220;2023-12-28T01:10:55;8.50;99.90
23411;DHT22;11878;51.774;7.220;2023-12-28T01:13:57;8.50;99.90
23411;DHT22;11878;51.774;7.220;2023-12-28T01:16:59;8.50;99.90
23411;DHT22;11878;51.774;7.220;2023-12-28T01:20:01;8.60;99.90
23411;DHT22;11878;51.774;7.220;2023-12-28T01:23:03;8.60;99.90
23411;DHT22;11878;51.774;7.220;2023-12-28T01:26:06;8.60;99.90
23411;DHT22;11878;51.774;7.220;2023-12-28T01:29:13;8.50;99.90
23411;DHT22;11878;51.774;7.220;2023-12-28T01:32:15;8.50;99.90
23411;DHT22;11878;51.774;7.220;2023-12-28T01:35:17;8.60;99.90
23411;DHT22;11878;51.774;7.220;2023-12-28T01:38:20;8.60;99.90
23411;DHT22;11878;51.774;7.220;2023-12-28T01:41:22;8.60;99.90
23411;DHT22;11878;51.774;7.220;2023-12-28T01:44:24;8.60;99.90
23411;DHT22;11878;51.774;7.220;2023-12-28T01:47:26;8.60;99.90
23411;DHT22;11878;51.774;7.220;2023-12-28T01:50:28;8.60;99.90
23411;DHT22;11878;51.774;7.220;2023-12-28T01:53:31;8.60;99.90
23411;DHT22;11878;51.774;7.220;2023-12-28T01:56:34;8.80;99.90
23411;DHT22;11878;51.774;7.220;2023-12-28T01:59:36;8.80;99.90
23411;DHT22;11878;51.774;7.220;2023-12-28T02:02:38;8.90;99.90
23411;DHT22;11878;51.774;7.220;2023-12-28T02:05:42;8.90;99.90
23411;DHT22;11878;51.774;7.220;2023-12-28T02:08:44;8.90;99.90
23411;DHT22;11878;51.774;7.220;2023-12-28T02:11:46;8.90;99.90
23411;DHT22;11878;51.774;7.220;2023-12-28T02:14:48;8.90;99.90
23411;DHT22;11878;51.774;7.220;2023-12-28T02:20:59;9.00;99.90
23411;DHT22;11878;51.774;7.220;2023-12-28T02:24:04;9.00;99.90
23411;DHT22;11878;51.774;7.220;2023-12-28T02:27:06;9.00;99.90
23411;DHT22;11878;51.774;7.220;2023-12-28T02:30:08;9.00;99.90
23411;DHT22;11878;51.774;7.220;2023-12-28T02:36:26;9.10;99.90
23411;DHT22;11878;51.774;7.220;2023-12-28T02:39:30;9.10;99.90
23411;DHT22;11878;51.774;7.220;2023-12-28T02:42:33;9.20;99.90
23411;DHT22;11878;51.774;7.220;2023-12-28T02:45:35;9.20;99.90
23411;DHT22;11878;51.774;7.220;2023-12-28T02:48:38;9.20;99.90
23411;DHT22;11878;51.774;7.220;2023-12-28T02:51:40;9.30;99.90
23411;DHT22;11878;51.774;7.220;2023-12-28T02:54:44;9.30;99.90
23411;DHT22;11878;51.774;7.220;2023-12-28T02:57:47;9.30;99.90
23411;DHT22;11878;51.774;7.220;2023-12-28T03:00:49;9.30;99.90
23411;DHT22;11878;51.774;7.220;2023-12-28T03:03:51;9.30;99.90
23411;DHT22;11878;51.774;7.220;2023-12-28T03:06:53;9.30;99.90
23411;DHT22;11878;51.774;7.220;2023-12-28T03:09:54;9.40;99.90
23411;DHT22;11878;51.774;7.220;2023-12-28T03:12:56;9.40;99.90
23411;DHT22;11878;51.774;7.220;2023-12-28T03:15:59;9.40;99.90
23411;DHT22;11878;51.774;7.220;2023-12-28T03:19:02;7.40;99.90
23411;DHT22;11878;51.774;7.220;2023-12-28T03:22:04;9.40;99.90
23411;DHT22;11878;51.774;7.220;2023-12-28T03:25:06;9.40;99.90
23411;DHT22;11878;51.774;7.220;2023-12-28T03:28:08;9.40;99.90
23411;DHT22;11878;51.774;7.220;2023-12-28T03:31:10;9.40;99.90
23411;DHT22;11878;51.774;7.220;2023-12-28T03:34:12;9.40;99.90
23411;DHT22;11878;51.774;7.220;2023-12-28T03:37:14;9.50;99.90
23411;DHT22;11878;51.774;7.220;2023-12-28T03:40:15;9.50;99.90
23411;DHT22;11878;51.774;7.220;2023-12-28T03:43:20;9.40;99.90
23411;DHT22;11878;51.774;7.220;2023-12-28T03:46:23;9.50;99.90
23411;DHT22;11878;51.774;7.220;2023-12-28T03:49:25;9.50;99.90
23411;DHT22;11878;51.774;7.220;2023-12-28T03:52:28;9.40;99.90
23411;DHT22;11878;51.774;7.220;2023-12-28T03:55:33;9.40;99.90
23411;DHT22;11878;51.774;7.220;2023-12-28T03:58:35;9.40;99.90
23411;DHT22;11878;51.774;7.220;2023-12-28T04:01:37;9.30;99.90
23411;DHT22;11878;51.774;7.220;2023-12-28T04:04:39;9.40;99.90
23411;DHT22;11878;51.774;7.220;2023-12-28T04:07:41;9.30;99.90
23411;DHT22;11878;51.774;7.220;2023-12-28T04:10:42;9.30;99.90
23411;DHT22;11878;51.774;7.220;2023-12-28T04:13:45;9.30;99.90
23411;DHT22;11878;51.774;7.220;2023-12-28T04:16:47;9.30;99.90
23411;DHT22;11878;51.774;7.220;2023-12-28T04:19:49;9.30;99.90
23411;DHT22;11878;51.774;7.220;2023-12-28T04:22:51;9.40;99.90
23411;DHT22;11878;51.774;7.220;2023-12-28T04:25:53;9.40;99.90
23411;DHT22;11878;51.774;7.220;2023-12-28T04:28:54;9.50;99.90
23411;DHT22;11878;51.774;7.220;2023-12-28T04:31:56;9.50;99.90
23411;DHT22;11878;51.774;7.220;2023-12-28T04:34:58;9.60;99.90
23411;DHT22;11878;51.774;7.220;2023-12-28T04:38:00;9.50;99.90
23411;DHT22;11878;51.774;7.220;2023-12-28T04:41:02;9.50;99.90
23411;DHT22;11878;51.774;7.220;2023-12-28T04:44:04;9.60;99.90
23411;DHT22;11878;51.774;7.220;2023-12-28T04:47:06;9.70;99.90
23411;DHT22;11878;51.774;7.220;2023-12-28T04:50:08;9.80;99.90
23411;DHT22;11878;51.774;7.220;2023-12-28T04:53:09;9.70;99.90
23411;DHT22;11878;51.774;7.220;2023-12-28T04:56:11;9.70;99.90
23411;DHT22;11878;51.774;7.220;2023-12-28T04:59:13;9.80;99.90
23411;DHT22;11878;51.774;7.220;2023-12-28T05:02:15;9.80;99.90
23411;DHT22;11878;51.774;7.220;2023-12-28T05:05:17;9.80;99.90
23411;DHT22;11878;51.774;7.220;2023-12-28T05:08:19;9.80;99.90
23411;DHT22;11878;51.774;7.220;2023-12-28T05:11:21;9.80;99.90
23411;DHT22;11878;51.774;7.220;2023-12-28T05:14:23;9.80;99.90
23411;DHT22;11878;51.774;7.220;2023-12-28T05:17:25;9.80;99.90
23411;DHT22;11878;51.774;7.220;2023-12-28T05:20:27;9.70;99.90
23411;DHT22;11878;51.774;7.220;2023-12-28T05:23:29;9.80;99.90
23411;DHT22;11878;51.774;7.220;2023-12-28T05:26:31;9.80;99.90
23411;DHT22;11878;51.774;7.220;2023-12-28T05:29:32;9.90;99.90
23411;DHT22;11878;51.774;7.220;2023-12-28T05:32:35;9.80;99.90
23411;DHT22;11878;51.774;7.220;2023-12-28T05:35:37;9.80;99.90
23411;DHT22;11878;51.774;7.220;2023-12-28T05:38:39;9.80;99.90
23411;DHT22;11878;51.774;7.220;2023-12-28T05:41:41;9.70;99.90
23411;DHT22;11878;51.774;7.220;2023-12-28T05:44:42;9.80;99.90
23411;DHT22;11878;51.774;7.220;2023-12-28T05:47:44;9.90;99.90
23411;DHT22;11878;51.774;7.220;2023-12-28T05:50:46;9.90;99.90
23411;DHT22;11878;51.774;7.220;2023-12-28T05:53:48;10.00;99.90
23411;DHT22;11878;51.774;7.220;2023-12-28T05:56:50;10.00;99.90
23411;DHT22;11878;51.774;7.220;2023-12-28T05:59:51;10.00;99.90
23411;DHT22;11878;51.774;7.220;2023-12-28T06:02:53;9.90;99.90
23411;DHT22;11878;51.774;7.220;2023-12-28T06:05:55;10.80;99.90
23411;DHT22;11878;51.774;7.220;2023-12-28T06:08:57;10.00;99.90
23411;DHT22;11878;51.774;7.220;2023-12-28T06:12:00;10.00;99.90
23411;DHT22;11878;51.774;7.220;2023-12-28T06:15:02;10.10;99.90
23411;DHT22;11878;51.774;7.220;2023-12-28T06:18:04;10.10;99.90
23411;DHT22;11878;51.774;7.220;2023-12-28T06:21:08;10.10;99.90
23411;DHT22;11878;51.774;7.220;2023-12-28T06:24:10;10.10;99.90
23411;DHT22;11878;51.774;7.220;2023-12-28T06:27:12;10.20;99.90
23411;DHT22;11878;51.774;7.220;2023-12-28T06:30:14;10.10;99.90
23411;DHT22;11878;51.774;7.220;2023-12-28T06:33:16;10.20;99.90
23411;DHT22;11878;51.774;7.220;2023-12-28T06:36:18;10.10;99.90
23411;DHT22;11878;51.774;7.220;2023-12-28T06:39:20;10.10;99.90
23411;DHT22;11878;51.774;7.220;2023-12-28T06:42:22;10.20;99.90
23411;DHT22;11878;51.774;7.220;2023-12-28T06:45:24;10.10;99.90
23411;DHT22;11878;51.774;7.220;2023-12-28T06:48:29;10.20;99.90
23411;DHT22;11878;51.774;7.220;2023-12-28T06:51:31;10.20;99.90
23411;DHT22;11878;51.774;7.220;2023-12-28T06:54:34;10.20;99.90
23411;DHT22;11878;51.774;7.220;2023-12-28T06:57:36;10.10;99.90
23411;DHT22;11878;51.774;7.220;2023-12-28T07:00:38;10.20;99.90
23411;DHT22;11878;51.774;7.220;2023-12-28T07:03:40;10.20;99.90
23411;DHT22;11878;51.774;7.220;2023-12-28T07:06:42;10.10;99.90
23411;DHT22;11878;51.774;7.220;2023-12-28T07:09:44;10.20;99.90
23411;DHT22;11878;51.774;7.220;2023-12-28T07:12:46;10.20;99.90
23411;DHT22;11878;51.774;7.220;2023-12-28T07:15:48;10.20;99.90
23411;DHT22;11878;51.774;7.220;2023-12-28T07:18:50;10.10;99.90
23411;DHT22;11878;51.774;7.220;2023-12-28T07:21:52;10.20;99.90
23411;DHT22;11878;51.774;7.220;2023-12-28T07:24:54;10.10;99.90
23411;DHT22;11878;51.774;7.220;2023-12-28T07:27:56;10.20;99.90
23411;DHT22;11878;51.774;7.220;2023-12-28T07:30:58;10.20;99.90
23411;DHT22;11878;51.774;7.220;2023-12-28T07:34:01;10.20;99.90
23411;DHT22;11878;51.774;7.220;2023-12-28T07:37:03;10.30;99.90
23411;DHT22;11878;51.774;7.220;2023-12-28T07:40:05;10.20;99.90
23411;DHT22;11878;51.774;7.220;2023-12-28T07:43:07;10.20;99.90
23411;DHT22;11878;51.774;7.220;2023-12-28T07:46:09;10.20;99.90
23411;DHT22;11878;51.774;7.220;2023-12-28T07:49:11;10.20;99.90
23411;DHT22;11878;51.774;7.220;2023-12-28T07:52:13;10.20;99.90
23411;DHT22;11878;51.774;7.220;2023-12-28T07:55:14;10.20;99.90
23411;DHT22;11878;51.774;7.220;2023-12-28T07:58:17;10.20;99.90
23411;DHT22;11878;51.774;7.220;2023-12-28T08:01:18;10.20;99.90
23411;DHT22;11878;51.774;7.220;2023-12-28T08:04:21;10.20;99.90
23411;DHT22;11878;51.774;7.220;2023-12-28T08:07:22;10.30;99.90
23411;DHT22;11878;51.774;7.220;2023-12-28T08:10:24;10.20;99.90
23411;DHT22;11878;51.774;7.220;2023-12-28T08:13:26;10.30;99.90
23411;DHT22;11878;51.774;7.220;2023-12-28T08:16:28;10.30;99.90
23411;DHT22;11878;51.774;7.220;2023-12-28T08:19:30;10.30;99.90
23411;DHT22;11878;51.774;7.220;2023-12-28T08:22:32;10.30;99.90
23411;DHT22;11878;51.774;7.220;2023-12-28T08:25:34;10.30;99.90
23411;DHT22;11878;51.774;7.220;2023-12-28T08:28:36;10.30;99.90
23411;DHT22;11878;51.774;7.220;2023-12-28T08:31:38;10.40;99.90
23411;DHT22;11878;51.774;7.220;2023-12-28T08:34:40;10.40;99.90
23411;DHT22;11878;51.774;7.220;2023-12-28T08:37:42;10.40;99.90
23411;DHT22;11878;51.774;7.220;2023-12-28T08:40:47;10.40;99.90
23411;DHT22;11878;51.774;7.220;2023-12-28T08:43:50;10.40;99.90
23411;DHT22;11878;51.774;7.220;2023-12-28T08:46:52;10.40;99.90
23411;DHT22;11878;51.774;7.220;2023-12-28T08:49:54;10.50;99.90
23411;DHT22;11878;51.774;7.220;2023-12-28T08:52:57;10.50;99.90
23411;DHT22;11878;51.774;7.220;2023-12-28T08:55:58;10.50;99.90
23411;DHT22;11878;51.774;7.220;2023-12-28T08:59:01;10.50;99.90
23411;DHT22;11878;51.774;7.220;2023-12-28T09:02:03;10.50;99.90
23411;DHT22;11878;51.774;7.220;2023-12-28T09:05:05;10.50;99.90
23411;DHT22;11878;51.774;7.220;2023-12-28T09:08:07;10.50;99.90
23411;DHT22;11878;51.774;7.220;2023-12-28T09:11:10;10.50;99.90
23411;DHT22;11878;51.774;7.220;2023-12-28T09:14:13;10.60;99.90
23411;DHT22;11878;51.774;7.220;2023-12-28T09:17:15;10.60;99.90
23411;DHT22;11878;51.774;7.220;2023-12-28T09:20:17;10.60;99.90
23411;DHT22;11878;51.774;7.220;2023-12-28T09:23:19;10.60;99.90
23411;DHT22;11878;51.774;7.220;2023-12-28T09:26:21;10.60;99.90
23411;DHT22;11878;51.774;7.220;2023-12-28T09:29:23;10.70;99.90
23411;DHT22;11878;51.774;7.220;2023-12-28T09:32:25;10.70;99.90
23411;DHT22;11878;51.774;7.220;2023-12-28T09:35:26;10.70;99.90
23411;DHT22;11878;51.774;7.220;2023-12-28T09:38:28;10.80;99.90
23411;DHT22;11878;51.774;7.220;2023-12-28T09:41:34;10.80;99.90
23411;DHT22;11878;51.774;7.220;2023-12-28T09:44:38;10.80;99.90
23411;DHT22;11878;51.774;7.220;2023-12-28T09:47:42;11.00;99.90
23411;DHT22;11878;51.774;7.220;2023-12-28T09:50:49;10.90;99.90
23411;DHT22;11878;51.774;7.220;2023-12-28T09:53:51;10.90;99.90
23411;DHT22;11878;51.774;7.220;2023-12-28T09:56:53;11.70;99.90
23411;DHT22;11878;51.774;7.220;2023-12-28T09:59:55;10.90;99.90
23411;DHT22;11878;51.774;7.220;2023-12-28T10:02:57;10.80;99.90
23411;DHT22;11878;51.774;7.220;2023-12-28T10:05:59;10.90;99.90
23411;DHT22;11878;51.774;7.220;2023-12-28T10:09:01;10.80;99.90
23411;DHT22;11878;51.774;7.220;2023-12-28T10:12:03;10.80;99.90
23411;DHT22;11878;51.774;7.220;2023-12-28T10:15:06;10.80;99.90
23411;DHT22;11878;51.774;7.220;2023-12-28T10:18:08;10.90;99.90
23411;DHT22;11878;51.774;7.220;2023-12-28T10:21:10;10.90;99.90
23411;DHT22;11878;51.774;7.220;2023-12-28T10:24:12;10.90;99.90
23411;DHT22;11878;51.774;7.220;2023-12-28T10:27:14;10.80;99.90
23411;DHT22;11878;51.774;7.220;2023-12-28T10:30:16;10.80;99.90
23411;DHT22;11878;51.774;7.220;2023-12-28T10:33:18;10.80;99.90
23411;DHT22;11878;51.774;7.220;2023-12-28T10:36:22;10.70;99.90
23411;DHT22;11878;51.774;7.220;2023-12-28T10:39:27;10.70;99.90
23411;DHT22;11878;51.774;7.220;2023-12-28T10:45:46;10.70;99.90
23411;DHT22;11878;51.774;7.220;2023-12-28T10:48:53;10.80;99.90
23411;DHT22;11878;51.774;7.220;2023-12-28T10:52:00;9.60;99.90
23411;DHT22;11878;51.774;7.220;2023-12-28T10:58:31;10.80;99.90
23411;DHT22;11878;51.774;7.220;2023-12-28T11:01:37;10.90;99.90
23411;DHT22;11878;51.774;7.220;2023-12-28T11:04:44;10.90;99.90
23411;DHT22;11878;51.774;7.220;2023-12-28T11:07:50;10.90;99.90
23411;DHT22;11878;51.774;7.220;2023-12-28T11:10:54;10.90;99.90
23411;DHT22;11878;51.774;7.220;2023-12-28T11:13:58;10.90;99.90
23411;DHT22;11878;51.774;7.220;2023-12-28T11:17:01;10.90;99.90
23411;DHT22;11878;51.774;7.220;2023-12-28T11:20:04;10.90;99.90
23411;DHT22;11878;51.774;7.220;2023-12-28T11:23:07;10.90;99.90
23411;DHT22;11878;51.774;7.220;2023-12-28T11:26:22;11.00;99.90
23411;DHT22;11878;51.774;7.220;2023-12-28T11:29:24;11.10;99.90
23411;DHT22;11878;51.774;7.220;2023-12-28T11:32:26;11.10;99.90
23411;DHT22;11878;51.774;7.220;2023-12-28T11:35:39;11.10;99.90
23411;DHT22;11878;51.774;7.220;2023-12-28T11:38:41;11.20;99.90
23411;DHT22;11878;51.774;7.220;2023-12-28T11:41:44;11.20;99.90
23411;DHT22;11878;51.774;7.220;2023-12-28T11:44:45;11.30;99.90
23411;DHT22;11878;51.774;7.220;2023-12-28T11:47:59;11.30;99.90
23411;DHT22;11878;51.774;7.220;2023-12-28T11:51:02;11.30;99.90
23411;DHT22;11878;51.774;7.220;2023-12-28T11:54:04;11.30;99.90
23411;DHT22;11878;51.774;7.220;2023-12-28T11:57:06;11.30;99.90
23411;DHT22;11878;51.774;7.220;2023-12-28T12:00:08;11.30;99.90
23411;DHT22;11878;51.774;7.220;2023-12-28T12:03:13;11.30;99.90
23411;DHT22;11878;51.774;7.220;2023-12-28T12:06:15;11.30;99.90
23411;DHT22;11878;51.774;7.220;2023-12-28T12:09:18;11.40;99.90
23411;DHT22;11878;51.774;7.220;2023-12-28T12:12:25;11.50;99.90
23411;DHT22;11878;51.774;7.220;2023-12-28T12:15:27;11.50;99.90
23411;DHT22;11878;51.774;7.220;2023-12-28T12:18:31;11.50;99.90
23411;DHT22;11878;51.774;7.220;2023-12-28T12:21:36;11.60;99.90
23411;DHT22;11878;51.774;7.220;2023-12-28T12:24:38;11.50;99.90
23411;DHT22;11878;51.774;7.220;2023-12-28T12:27:41;11.60;99.90
23411;DHT22;11878;51.774;7.220;2023-12-28T12:30:56;11.50;99.90
23411;DHT22;11878;51.774;7.220;2023-12-28T12:33:58;11.60;99.90
23411;DHT22;11878;51.774;7.220;2023-12-28T12:37:01;11.60;99.90
23411;DHT22;11878;51.774;7.220;2023-12-28T12:40:04;11.50;99.90
23411;DHT22;11878;51.774;7.220;2023-12-28T12:43:07;11.50;99.90
23411;DHT22;11878;51.774;7.220;2023-12-28T12:46:11;11.60;99.90
23411;DHT22;11878;51.774;7.220;2023-12-28T12:49:13;11.60;99.90
23411;DHT22;11878;51.774;7.220;2023-12-28T12:52:15;11.50;99.90
23411;DHT22;11878;51.774;7.220;2023-12-28T12:55:17;11.50;99.90
23411;DHT22;11878;51.774;7.220;2023-12-28T12:58:20;11.40;99.90
23411;DHT22;11878;51.774;7.220;2023-12-28T13:01:23;11.40;99.90
23411;DHT22;11878;51.774;7.220;2023-12-28T13:04:26;11.40;99.90
23411;DHT22;11878;51.774;7.220;2023-12-28T13:07:28;11.40;99.90
23411;DHT22;11878;51.774;7.220;2023-12-28T13:10:33;11.40;99.90
23411;DHT22;11878;51.774;7.220;2023-12-28T13:13:35;11.30;99.90
23411;DHT22;11878;51.774;7.220;2023-12-28T13:16:37;11.40;99.90
23411;DHT22;11878;51.774;7.220;2023-12-28T13:19:39;11.40;99.90
23411;DHT22;11878;51.774;7.220;2023-12-28T13:22:41;11.30;99.90
23411;DHT22;11878;51.774;7.220;2023-12-28T13:25:42;11.40;99.90
23411;DHT22;11878;51.774;7.220;2023-12-28T13:28:46;11.30;99.90
23411;DHT22;11878;51.774;7.220;2023-12-28T13:31:47;11.30;99.90
23411;DHT22;11878;51.774;7.220;2023-12-28T13:34:52;11.40;99.90
23411;DHT22;11878;51.774;7.220;2023-12-28T13:37:54;11.40;99.90
23411;DHT22;11878;51.774;7.220;2023-12-28T13:40:56;11.30;99.90
23411;DHT22;11878;51.774;7.220;2023-12-28T13:43:58;11.30;99.90
23411;DHT22;11878;51.774;7.220;2023-12-28T13:47:04;11.30;99.90
23411;DHT22;11878;51.774;7.220;2023-12-28T13:50:10;11.30;99.90
23411;DHT22;11878;51.774;7.220;2023-12-28T13:53:12;11.30;99.90
23411;DHT22;11878;51.774;7.220;2023-12-28T13:56:14;11.30;99.90
23411;DHT22;11878;51.774;7.220;2023-12-28T13:59:16;11.30;99.90
23411;DHT22;11878;51.774;7.220;2023-12-28T14:02:18;11.30;99.90
23411;DHT22;11878;51.774;7.220;2023-12-28T14:05:19;13.70;99.90
23411;DHT22;11878;51.774;7.220;2023-12-28T14:08:22;11.30;99.90
23411;DHT22;11878;51.774;7.220;2023-12-28T14:11:24;11.20;99.90
23411;DHT22;11878;51.774;7.220;2023-12-28T14:14:26;11.30;99.90
23411;DHT22;11878;51.774;7.220;2023-12-28T14:17:28;11.30;99.90
23411;DHT22;11878;51.774;7.220;2023-12-28T14:20:32;11.30;99.90
23411;DHT22;11878;51.774;7.220;2023-12-28T14:23:34;11.20;99.90
23411;DHT22;11878;51.774;7.220;2023-12-28T14:26:41;11.20;99.90
23411;DHT22;11878;51.774;7.220;2023-12-28T14:29:45;11.30;99.90
23411;DHT22;11878;51.774;7.220;2023-12-28T14:32:47;11.30;99.90
23411;DHT22;11878;51.774;7.220;2023-12-28T14:35:49;11.30;99.90
23411;DHT22;11878;51.774;7.220;2023-12-28T14:38:51;11.20;99.90
23411;DHT22;11878;51.774;7.220;2023-12-28T14:41:53;12.70;99.90
23411;DHT22;11878;51.774;7.220;2023-12-28T14:44:55;11.30;99.90
23411;DHT22;11878;51.774;7.220;2023-12-28T14:47:56;11.20;99.90
23411;DHT22;11878;51.774;7.220;2023-12-28T14:50:59;11.20;99.90
23411;DHT22;11878;51.774;7.220;2023-12-28T14:54:00;11.20;99.90
23411;DHT22;11878;51.774;7.220;2023-12-28T14:57:03;11.20;99.90
23411;DHT22;11878;51.774;7.220;2023-12-28T15:00:05;11.20;99.90
23411;DHT22;11878;51.774;7.220;2023-12-28T15:03:07;11.10;99.90
23411;DHT22;11878;51.774;7.220;2023-12-28T15:06:09;11.10;99.90
23411;DHT22;11878;51.774;7.220;2023-12-28T15:09:12;11.10;99.90
23411;DHT22;11878;51.774;7.220;2023-12-28T15:12:14;11.10;99.90
23411;DHT22;11878;51.774;7.220;2023-12-28T15:15:16;11.10;99.90
23411;DHT22;11878;51.774;7.220;2023-12-28T15:18:18;11.10;99.90
23411;DHT22;11878;51.774;7.220;2023-12-28T15:21:20;11.00;99.90
23411;DHT22;11878;51.774;7.220;2023-12-28T15:24:23;11.00;99.90
23411;DHT22;11878;51.774;7.220;2023-12-28T15:27:24;10.90;99.90
23411;DHT22;11878;51.774;7.220;2023-12-28T15:30:26;10.90;99.90
23411;DHT22;11878;51.774;7.220;2023-12-28T15:33:28;10.70;99.90
23411;DHT22;11878;51.774;7.220;2023-12-28T15:36:30;10.80;99.90
23411;DHT22;11878;51.774;7.220;2023-12-28T15:39:32;10.80;99.90
23411;DHT22;11878;51.774;7.220;2023-12-28T15:42:35;10.90;99.90
23411;DHT22;11878;51.774;7.220;2023-12-28T15:45:37;10.80;99.90
23411;DHT22;11878;51.774;7.220;2023-12-28T15:48:39;10.90;99.90
23411;DHT22;11878;51.774;7.220;2023-12-28T15:51:41;10.90;99.90
23411;DHT22;11878;51.774;7.220;2023-12-28T15:54:43;10.90;99.90
23411;DHT22;11878;51.774;7.220;2023-12-28T15:57:45;10.90;99.90
23411;DHT22;11878;51.774;7.220;2023-12-28T16:00:47;10.90;99.90
23411;DHT22;11878;51.774;7.220;2023-12-28T16:03:49;10.80;99.90
23411;DHT22;11878;51.774;7.220;2023-12-28T16:06:51;10.70;99.90
23411;DHT22;11878;51.774;7.220;2023-12-28T16:09:53;10.70;99.90
23411;DHT22;11878;51.774;7.220;2023-12-28T16:12:54;10.70;99.90
23411;DHT22;11878;51.774;7.220;2023-12-28T16:15:56;11.40;99.90
23411;DHT22;11878;51.774;7.220;2023-12-28T16:18:59;10.90;99.90
23411;DHT22;11878;51.774;7.220;2023-12-28T16:22:01;10.80;99.90
23411;DHT22;11878;51.774;7.220;2023-12-28T16:25:05;10.80;99.90
23411;DHT22;11878;51.774;7.220;2023-12-28T16:28:08;10.80;99.90
23411;DHT22;11878;51.774;7.220;2023-12-28T16:31:12;10.80;99.90
23411;DHT22;11878;51.774;7.220;2023-12-28T16:34:14;10.90;99.90
23411;DHT22;11878;51.774;7.220;2023-12-28T16:37:18;10.80;99.90
23411;DHT22;11878;51.774;7.220;2023-12-28T16:40:20;10.80;99.90
23411;DHT22;11878;51.774;7.220;2023-12-28T16:43:22;10.90;99.90
23411;DHT22;11878;51.774;7.220;2023-12-28T16:46:25;10.90;99.90
23411;DHT22;11878;51.774;7.220;2023-12-28T16:49:27;10.80;99.90
23411;DHT22;11878;51.774;7.220;2023-12-28T16:52:29;10.80;99.90
23411;DHT22;11878;51.774;7.220;2023-12-28T16:55:31;10.80;99.90
23411;DHT22;11878;51.774;7.220;2023-12-28T16:58:33;10.80;99.90
23411;DHT22;11878;51.774;7.220;2023-12-28T17:01:35;10.90;99.90
23411;DHT22;11878;51.774;7.220;2023-12-28T17:04:37;8.80;99.90
23411;DHT22;11878;51.774;7.220;2023-12-28T17:07:39;10.80;99.90
23411;DHT22;11878;51.774;7.220;2023-12-28T17:10:41;10.70;99.90
23411;DHT22;11878;51.774;7.220;2023-12-28T17:13:44;10.60;99.90
23411;DHT22;11878;51.774;7.220;2023-12-28T17:16:46;10.60;99.90
23411;DHT22;11878;51.774;7.220;2023-12-28T17:19:48;10.60;99.90
23411;DHT22;11878;51.774;7.220;2023-12-28T17:22:59;10.70;99.90
23411;DHT22;11878;51.774;7.220;2023-12-28T17:29:25;10.70;99.90
23411;DHT22;11878;51.774;7.220;2023-12-28T17:32:32;10.70;99.90
23411;DHT22;11878;51.774;7.220;2023-12-28T17:35:35;10.70;99.90
23411;DHT22;11878;51.774;7.220;2023-12-28T17:38:38;10.80;99.90
23411;DHT22;11878;51.774;7.220;2023-12-28T17:41:41;10.70;99.90
23411;DHT22;11878;51.774;7.220;2023-12-28T17:44:45;10.70;99.90
23411;DHT22;11878;51.774;7.220;2023-12-28T17:48:02;10.70;99.90
23411;DHT22;11878;51.774;7.220;2023-12-28T17:51:07;10.70;99.90
23411;DHT22;11878;51.774;7.220;2023-12-28T17:54:10;10.80;99.90
23411;DHT22;11878;51.774;7.220;2023-12-28T17:57:12;10.70;99.90
23411;DHT22;11878;51.774;7.220;2023-12-28T18:00:14;10.70;99.90
23411;DHT22;11878;51.774;7.220;2023-12-28T18:03:16;10.70;99.90
23411;DHT22;11878;51.774;7.220;2023-12-28T18:06:18;10.60;99.90
23411;DHT22;11878;51.774;7.220;2023-12-28T18:09:20;10.70;99.90
23411;DHT22;11878;51.774;7.220;2023-12-28T18:12:25;10.70;99.90
23411;DHT22;11878;51.774;7.220;2023-12-28T18:15:27;10.60;99.90
23411;DHT22;11878;51.774;7.220;2023-12-28T18:18:29;10.70;99.90
23411;DHT22;11878;51.774;7.220;2023-12-28T18:21:31;10.70;99.90
23411;DHT22;11878;51.774;7.220;2023-12-28T18:24:33;10.70;99.90
23411;DHT22;11878;51.774;7.220;2023-12-28T18:27:35;10.70;99.90
23411;DHT22;11878;51.774;7.220;2023-12-28T18:30:37;10.60;99.90
23411;DHT22;11878;51.774;7.220;2023-12-28T18:33:39;10.70;99.90
23411;DHT22;11878;51.774;7.220;2023-12-28T18:36:41;10.70;99.90
23411;DHT22;11878;51.774;7.220;2023-12-28T18:39:43;10.60;99.90
23411;DHT22;11878;51.774;7.220;2023-12-28T18:42:46;10.70;99.90
23411;DHT22;11878;51.774;7.220;2023-12-28T18:45:48;10.70;99.90
23411;DHT22;11878;51.774;7.220;2023-12-28T18:48:50;10.70;99.90
23411;DHT22;11878;51.774;7.220;2023-12-28T18:51:53;10.70;99.90
23411;DHT22;11878;51.774;7.220;2023-12-28T18:54:55;10.60;99.90
23411;DHT22;11878;51.774;7.220;2023-12-28T18:57:58;10.60;99.90
23411;DHT22;11878;51.774;7.220;2023-12-28T19:01:00;10.60;99.90
23411;DHT22;11878;51.774;7.220;2023-12-28T19:04:02;10.60;99.90
23411;DHT22;11878;51.774;7.220;2023-12-28T19:07:04;10.60;99.90
23411;DHT22;11878;51.774;7.220;2023-12-28T19:10:06;10.60;99.90
23411;DHT22;11878;51.774;7.220;2023-12-28T19:13:08;10.60;99.90
23411;DHT22;11878;51.774;7.220;2023-12-28T19:16:17;10.60;99.90
23411;DHT22;11878;51.774;7.220;2023-12-28T19:19:20;10.60;99.90
23411;DHT22;11878;51.774;7.220;2023-12-28T19:22:22;10.60;99.90
23411;DHT22;11878;51.774;7.220;2023-12-28T19:25:24;10.60;99.90
23411;DHT22;11878;51.774;7.220;2023-12-28T19:28:25;10.60;99.90
23411;DHT22;11878;51.774;7.220;2023-12-28T19:31:28;10.60;99.90
23411;DHT22;11878;51.774;7.220;2023-12-28T19:34:30;10.60;99.90